sensor_id;sensor_type;location;lat;lon;timestamp;P1;durP1;ratioP1;P2;durP2;ratioP2
55220;SDS011;41089;51.448;6.604;2024-03-02T00:03:09;1.52;;;1.42;;
55220;SDS011;41089;51.448;6.604;2024-03-02T00:09:09;2.42;;;1.60;;
55220;SDS011;41089;51.448;6.604;2024-03-02T00:16:13;2.25;;;1.70;;
55220;SDS011;41089;51.448;6.604;2024-03-02T00:21:42;2.75;;;1.52;;
55220;SDS011;41089;51.448;6.604;2024-03-02T00:27:47;2.70;;;1.70;;
55220;SDS011;41089;51.448;6.604;2024-03-02T00:33:49;1.80;;;1.63;;
55220;SDS011;41089;51.448;6.604;2024-03-02T00:39:49;3.25;;;1.70;;
55220;SDS011;41089;51.448;6.604;2024-03-02T00:45:49;1.50;;;1.30;;
55220;SDS011;41089;51.448;6.604;2024-03-02T00:51:53;2.13;;;1.53;;
55220;SDS011;41089;51.448;6.604;2024-03-02T00:57:55;2.47;;;1.85;;
55220;SDS011;41089;51.448;6.604;2024-03-02T01:03:55;1.90;;;1.58;;
55220;SDS011;41089;51.448;6.604;2024-03-02T01:09:56;5.50;;;2.10;;
55220;SDS011;41089;51.448;6.604;2024-03-02T01:15:56;3.30;;;2.03;;
55220;SDS011;41089;51.448;6.604;2024-03-02T01:21:57;2.97;;;2.20;;
55220;SDS011;41089;51.448;6.604;2024-03-02T01:27:57;2.80;;;2.33;;
55220;SDS011;41089;51.448;6.604;2024-03-02T01:33:57;5.80;;;2.22;;
55220;SDS011;41089;51.448;6.604;2024-03-02T01:39:58;4.22;;;2.20;;
55220;SDS011;41089;51.448;6.604;2024-03-02T01:45:58;4.35;;;2.30;;
55220;SDS011;41089;51.448;6.604;2024-03-02T01:51:59;3.60;;;2.03;;
55220;SDS011;41089;51.448;6.604;2024-03-02T01:57:59;3.85;;;2.03;;
55220;SDS011;41089;51.448;6.604;2024-03-02T02:04:00;5.28;;;2.28;;
55220;SDS011;41089;51.448;6.604;2024-03-02T02:10:00;2.40;;;1.98;;
55220;SDS011;41089;51.448;6.604;2024-03-02T02:16:04;2.17;;;1.35;;
55220;SDS011;41089;51.448;6.604;2024-03-02T02:22:06;3.78;;;1.58;;
55220;SDS011;41089;51.448;6.604;2024-03-02T02:28:06;3.00;;;1.60;;
55220;SDS011;41089;51.448;6.604;2024-03-02T02:34:06;3.70;;;1.70;;
55220;SDS011;41089;51.448;6.604;2024-03-02T02:40:07;3.20;;;1.20;;
55220;SDS011;41089;51.448;6.604;2024-03-02T02:46:07;2.65;;;1.38;;
55220;SDS011;41089;51.448;6.604;2024-03-02T02:52:08;2.40;;;1.90;;
55220;SDS011;41089;51.448;6.604;2024-03-02T02:58:09;2.92;;;1.50;;
55220;SDS011;41089;51.448;6.604;2024-03-02T03:04:09;3.30;;;1.50;;
55220;SDS011;41089;51.448;6.604;2024-03-02T03:10:10;2.10;;;1.55;;
55220;SDS011;41089;51.448;6.604;2024-03-02T03:16:10;2.75;;;1.30;;
55220;SDS011;41089;51.448;6.604;2024-03-02T03:22:10;3.03;;;1.85;;
55220;SDS011;41089;51.448;6.604;2024-03-02T03:28:11;2.40;;;1.63;;
55220;SDS011;41089;51.448;6.604;2024-03-02T03:34:11;4.22;;;1.50;;
55220;SDS011;41089;51.448;6.604;2024-03-02T03:40:15;1.90;;;1.15;;
55220;SDS011;41089;51.448;6.604;2024-03-02T03:46:16;3.58;;;1.40;;
55220;SDS011;41089;51.448;6.604;2024-03-02T03:52:16;6.57;;;1.40;;
55220;SDS011;41089;51.448;6.604;2024-03-02T03:58:18;2.85;;;0.93;;
55220;SDS011;41089;51.448;6.604;2024-03-02T04:04:22;1.10;;;0.65;;
55220;SDS011;41089;51.448;6.604;2024-03-02T04:10:23;0.70;;;0.68;;
55220;SDS011;41089;51.448;6.604;2024-03-02T04:16:24;0.60;;;0.50;;
55220;SDS011;41089;51.448;6.604;2024-03-02T04:22:25;1.88;;;0.73;;
55220;SDS011;41089;51.448;6.604;2024-03-02T04:28:25;4.10;;;0.88;;
55220;SDS011;41089;51.448;6.604;2024-03-02T04:34:26;0.93;;;0.93;;
55220;SDS011;41089;51.448;6.604;2024-03-02T04:40:26;2.57;;;1.30;;
55220;SDS011;41089;51.448;6.604;2024-03-02T04:46:27;2.50;;;1.00;;
55220;SDS011;41089;51.448;6.604;2024-03-02T04:52:27;2.73;;;1.17;;
55220;SDS011;41089;51.448;6.604;2024-03-02T04:58:27;2.50;;;1.13;;
55220;SDS011;41089;51.448;6.604;2024-03-02T05:04:28;1.55;;;1.10;;
55220;SDS011;41089;51.448;6.604;2024-03-02T05:10:28;1.77;;;1.20;;
55220;SDS011;41089;51.448;6.604;2024-03-02T05:16:29;3.15;;;1.13;;
55220;SDS011;41089;51.448;6.604;2024-03-02T05:22:29;3.55;;;1.02;;
55220;SDS011;41089;51.448;6.604;2024-03-02T05:28:30;1.33;;;1.20;;
55220;SDS011;41089;51.448;6.604;2024-03-02T05:34:30;2.70;;;1.52;;
55220;SDS011;41089;51.448;6.604;2024-03-02T05:40:32;2.03;;;1.25;;
55220;SDS011;41089;51.448;6.604;2024-03-02T05:46:34;3.08;;;1.27;;
55220;SDS011;41089;51.448;6.604;2024-03-02T05:52:35;5.68;;;1.45;;
55220;SDS011;41089;51.448;6.604;2024-03-02T05:58:35;3.83;;;1.60;;
55220;SDS011;41089;51.448;6.604;2024-03-02T06:04:48;2.97;;;1.60;;
55220;SDS011;41089;51.448;6.604;2024-03-02T06:10:48;3.30;;;2.10;;
55220;SDS011;41089;51.448;6.604;2024-03-02T06:16:49;3.00;;;2.13;;
55220;SDS011;41089;51.448;6.604;2024-03-02T06:22:49;5.13;;;2.22;;
55220;SDS011;41089;51.448;6.604;2024-03-02T06:28:50;4.50;;;2.05;;
55220;SDS011;41089;51.448;6.604;2024-03-02T06:34:50;3.00;;;2.45;;
55220;SDS011;41089;51.448;6.604;2024-03-02T06:40:51;3.85;;;2.22;;
55220;SDS011;41089;51.448;6.604;2024-03-02T06:46:52;3.35;;;1.85;;
55220;SDS011;41089;51.448;6.604;2024-03-02T06:52:53;3.53;;;2.10;;
55220;SDS011;41089;51.448;6.604;2024-03-02T06:58:54;2.97;;;1.95;;
55220;SDS011;41089;51.448;6.604;2024-03-02T07:04:55;2.85;;;1.80;;
55220;SDS011;41089;51.448;6.604;2024-03-02T07:10:55;3.03;;;1.48;;
55220;SDS011;41089;51.448;6.604;2024-03-02T07:16:57;2.78;;;2.13;;
55220;SDS011;41089;51.448;6.604;2024-03-02T07:22:57;2.80;;;1.73;;
55220;SDS011;41089;51.448;6.604;2024-03-02T07:28:58;2.10;;;1.60;;
55220;SDS011;41089;51.448;6.604;2024-03-02T07:34:58;3.03;;;1.80;;
55220;SDS011;41089;51.448;6.604;2024-03-02T07:40:59;5.03;;;2.35;;
55220;SDS011;41089;51.448;6.604;2024-03-02T07:47:00;4.95;;;2.78;;
55220;SDS011;41089;51.448;6.604;2024-03-02T07:53:01;5.17;;;2.90;;
55220;SDS011;41089;51.448;6.604;2024-03-02T07:59:02;5.05;;;2.63;;
55220;SDS011;41089;51.448;6.604;2024-03-02T08:05:03;2.85;;;1.77;;
55220;SDS011;41089;51.448;6.604;2024-03-02T08:11:03;4.05;;;2.05;;
55220;SDS011;41089;51.448;6.604;2024-03-02T08:17:04;4.87;;;2.50;;
55220;SDS011;41089;51.448;6.604;2024-03-02T08:23:09;2.95;;;2.05;;
55220;SDS011;41089;51.448;6.604;2024-03-02T08:29:09;3.43;;;1.87;;
55220;SDS011;41089;51.448;6.604;2024-03-02T08:35:10;2.60;;;1.83;;
55220;SDS011;41089;51.448;6.604;2024-03-02T08:41:10;4.70;;;2.10;;
55220;SDS011;41089;51.448;6.604;2024-03-02T08:47:13;3.58;;;1.92;;
55220;SDS011;41089;51.448;6.604;2024-03-02T08:53:13;1.95;;;1.75;;
55220;SDS011;41089;51.448;6.604;2024-03-02T08:59:18;1.80;;;1.67;;
55220;SDS011;41089;51.448;6.604;2024-03-02T09:05:18;4.97;;;1.67;;
55220;SDS011;41089;51.448;6.604;2024-03-02T09:11:19;1.67;;;1.23;;
55220;SDS011;41089;51.448;6.604;2024-03-02T09:17:19;2.63;;;1.57;;
55220;SDS011;41089;51.448;6.604;2024-03-02T09:23:21;3.60;;;1.60;;
55220;SDS011;41089;51.448;6.604;2024-03-02T09:29:21;2.20;;;1.45;;
55220;SDS011;41089;51.448;6.604;2024-03-02T09:35:22;3.03;;;1.50;;
55220;SDS011;41089;51.448;6.604;2024-03-02T09:41:22;1.95;;;1.50;;
55220;SDS011;41089;51.448;6.604;2024-03-02T09:47:23;2.25;;;1.20;;
55220;SDS011;41089;51.448;6.604;2024-03-02T09:53:23;3.10;;;1.25;;
55220;SDS011;41089;51.448;6.604;2024-03-02T09:59:24;3.37;;;1.13;;
55220;SDS011;41089;51.448;6.604;2024-03-02T10:05:25;2.13;;;0.93;;
55220;SDS011;41089;51.448;6.604;2024-03-02T10:17:34;3.45;;;0.80;;
55220;SDS011;41089;51.448;6.604;2024-03-02T10:23:34;1.30;;;0.80;;
55220;SDS011;41089;51.448;6.604;2024-03-02T10:29:39;1.98;;;1.05;;
55220;SDS011;41089;51.448;6.604;2024-03-02T10:35:40;2.28;;;0.70;;
55220;SDS011;41089;51.448;6.604;2024-03-02T10:41:41;3.13;;;0.85;;
55220;SDS011;41089;51.448;6.604;2024-03-02T10:47:44;3.00;;;1.17;;
55220;SDS011;41089;51.448;6.604;2024-03-02T10:53:45;2.60;;;0.90;;
55220;SDS011;41089;51.448;6.604;2024-03-02T10:59:50;1.33;;;0.60;;
55220;SDS011;41089;51.448;6.604;2024-03-02T11:05:54;0.85;;;0.50;;
55220;SDS011;41089;51.448;6.604;2024-03-02T11:18:29;4.05;;;1.15;;
55220;SDS011;41089;51.448;6.604;2024-03-02T11:24:31;3.80;;;1.38;;
55220;SDS011;41089;51.448;6.604;2024-03-02T11:36:37;2.72;;;0.98;;
55220;SDS011;41089;51.448;6.604;2024-03-02T11:42:38;1.80;;;0.95;;
55220;SDS011;41089;51.448;6.604;2024-03-02T11:48:39;2.78;;;0.93;;
55220;SDS011;41089;51.448;6.604;2024-03-02T11:54:40;1.45;;;0.70;;
55220;SDS011;41089;51.448;6.604;2024-03-02T12:00:46;5.43;;;1.70;;
55220;SDS011;41089;51.448;6.604;2024-03-02T12:06:54;2.93;;;1.10;;
55220;SDS011;41089;51.448;6.604;2024-03-02T12:13:00;1.55;;;0.93;;
55220;SDS011;41089;51.448;6.604;2024-03-02T12:19:02;4.00;;;1.35;;
55220;SDS011;41089;51.448;6.604;2024-03-02T12:25:03;4.15;;;1.27;;
55220;SDS011;41089;51.448;6.604;2024-03-02T12:31:04;1.05;;;0.73;;
55220;SDS011;41089;51.448;6.604;2024-03-02T12:37:05;2.72;;;1.63;;
55220;SDS011;41089;51.448;6.604;2024-03-02T12:43:06;2.83;;;1.20;;
55220;SDS011;41089;51.448;6.604;2024-03-02T12:49:11;3.00;;;1.23;;
55220;SDS011;41089;51.448;6.604;2024-03-02T12:55:14;2.40;;;1.30;;
55220;SDS011;41089;51.448;6.604;2024-03-02T13:01:14;2.63;;;1.38;;
55220;SDS011;41089;51.448;6.604;2024-03-02T13:07:18;2.17;;;1.17;;
55220;SDS011;41089;51.448;6.604;2024-03-02T13:13:18;1.40;;;1.00;;
55220;SDS011;41089;51.448;6.604;2024-03-02T13:25:19;3.10;;;1.05;;
55220;SDS011;41089;51.448;6.604;2024-03-02T13:31:19;2.43;;;1.20;;
55220;SDS011;41089;51.448;6.604;2024-03-02T13:37:20;2.55;;;1.48;;
55220;SDS011;41089;51.448;6.604;2024-03-02T13:43:21;1.08;;;0.95;;
55220;SDS011;41089;51.448;6.604;2024-03-02T13:49:23;1.42;;;1.10;;
55220;SDS011;41089;51.448;6.604;2024-03-02T13:55:24;2.53;;;1.23;;
55220;SDS011;41089;51.448;6.604;2024-03-02T14:01:24;1.80;;;1.05;;
55220;SDS011;41089;51.448;6.604;2024-03-02T14:07:25;2.63;;;0.90;;
55220;SDS011;41089;51.448;6.604;2024-03-02T14:13:25;1.67;;;1.00;;
55220;SDS011;41089;51.448;6.604;2024-03-02T14:19:26;1.00;;;0.90;;
55220;SDS011;41089;51.448;6.604;2024-03-02T14:25:27;1.30;;;1.05;;
55220;SDS011;41089;51.448;6.604;2024-03-02T14:31:30;3.25;;;1.60;;
55220;SDS011;41089;51.448;6.604;2024-03-02T14:37:31;3.17;;;1.42;;
55220;SDS011;41089;51.448;6.604;2024-03-02T14:43:33;1.27;;;0.90;;
55220;SDS011;41089;51.448;6.604;2024-03-02T14:49:33;2.38;;;1.00;;
55220;SDS011;41089;51.448;6.604;2024-03-02T14:55:36;2.25;;;1.00;;
55220;SDS011;41089;51.448;6.604;2024-03-02T15:01:37;1.30;;;1.20;;
55220;SDS011;41089;51.448;6.604;2024-03-02T15:07:38;2.40;;;1.10;;
55220;SDS011;41089;51.448;6.604;2024-03-02T15:13:38;2.00;;;1.17;;
55220;SDS011;41089;51.448;6.604;2024-03-02T15:19:39;2.42;;;1.00;;
55220;SDS011;41089;51.448;6.604;2024-03-02T15:31:40;3.05;;;0.93;;
55220;SDS011;41089;51.448;6.604;2024-03-02T15:43:41;1.33;;;1.00;;
55220;SDS011;41089;51.448;6.604;2024-03-02T15:49:42;5.82;;;2.58;;
55220;SDS011;41089;51.448;6.604;2024-03-02T15:55:43;2.40;;;1.60;;
55220;SDS011;41089;51.448;6.604;2024-03-02T16:01:45;2.25;;;0.90;;
55220;SDS011;41089;51.448;6.604;2024-03-02T16:07:45;2.10;;;0.93;;
55220;SDS011;41089;51.448;6.604;2024-03-02T16:13:45;2.75;;;0.93;;
55220;SDS011;41089;51.448;6.604;2024-03-02T16:19:47;2.15;;;0.80;;
55220;SDS011;41089;51.448;6.604;2024-03-02T16:25:47;1.27;;;1.00;;
55220;SDS011;41089;51.448;6.604;2024-03-02T16:31:48;1.40;;;0.97;;
55220;SDS011;41089;51.448;6.604;2024-03-02T16:37:48;0.70;;;0.70;;
55220;SDS011;41089;51.448;6.604;2024-03-02T16:43:49;1.07;;;0.97;;
55220;SDS011;41089;51.448;6.604;2024-03-02T16:49:49;1.15;;;0.77;;
55220;SDS011;41089;51.448;6.604;2024-03-02T16:55:49;2.27;;;1.30;;
55220;SDS011;41089;51.448;6.604;2024-03-02T17:01:50;1.70;;;1.25;;
55220;SDS011;41089;51.448;6.604;2024-03-02T17:07:51;0.77;;;0.73;;
55220;SDS011;41089;51.448;6.604;2024-03-02T17:13:52;3.70;;;1.65;;
55220;SDS011;41089;51.448;6.604;2024-03-02T17:19:58;3.40;;;2.00;;
55220;SDS011;41089;51.448;6.604;2024-03-02T17:26:01;5.25;;;3.15;;
55220;SDS011;41089;51.448;6.604;2024-03-02T17:32:02;5.80;;;2.85;;
55220;SDS011;41089;51.448;6.604;2024-03-02T17:38:02;3.30;;;2.20;;
55220;SDS011;41089;51.448;6.604;2024-03-02T17:44:03;5.53;;;1.83;;
55220;SDS011;41089;51.448;6.604;2024-03-02T17:50:04;2.77;;;1.83;;
55220;SDS011;41089;51.448;6.604;2024-03-02T17:56:10;2.72;;;2.05;;
55220;SDS011;41089;51.448;6.604;2024-03-02T18:02:10;1.90;;;1.65;;
55220;SDS011;41089;51.448;6.604;2024-03-02T18:14:11;2.22;;;1.75;;
55220;SDS011;41089;51.448;6.604;2024-03-02T18:26:12;3.70;;;1.80;;
55220;SDS011;41089;51.448;6.604;2024-03-02T18:38:12;3.15;;;2.10;;
55220;SDS011;41089;51.448;6.604;2024-03-02T18:44:13;3.60;;;2.20;;
55220;SDS011;41089;51.448;6.604;2024-03-02T18:56:13;5.38;;;2.35;;
55220;SDS011;41089;51.448;6.604;2024-03-02T19:02:14;3.37;;;2.20;;
55220;SDS011;41089;51.448;6.604;2024-03-02T19:08:14;3.70;;;2.60;;
55220;SDS011;41089;51.448;6.604;2024-03-02T19:14:18;3.88;;;2.53;;
55220;SDS011;41089;51.448;6.604;2024-03-02T19:20:18;2.17;;;1.70;;
55220;SDS011;41089;51.448;6.604;2024-03-02T19:26:19;2.35;;;1.60;;
55220;SDS011;41089;51.448;6.604;2024-03-02T19:32:20;1.92;;;1.55;;
55220;SDS011;41089;51.448;6.604;2024-03-02T19:38:22;4.75;;;1.67;;
55220;SDS011;41089;51.448;6.604;2024-03-02T19:44:25;4.07;;;2.25;;
55220;SDS011;41089;51.448;6.604;2024-03-02T19:50:31;5.25;;;2.28;;
55220;SDS011;41089;51.448;6.604;2024-03-02T19:56:32;3.07;;;2.63;;
55220;SDS011;41089;51.448;6.604;2024-03-02T20:02:33;10.00;;;4.32;;
55220;SDS011;41089;51.448;6.604;2024-03-02T20:08:34;8.45;;;5.30;;
55220;SDS011;41089;51.448;6.604;2024-03-02T20:14:34;3.33;;;2.33;;
55220;SDS011;41089;51.448;6.604;2024-03-02T20:20:34;5.18;;;2.30;;
55220;SDS011;41089;51.448;6.604;2024-03-02T20:26:38;2.80;;;2.13;;
55220;SDS011;41089;51.448;6.604;2024-03-02T20:32:38;2.47;;;2.28;;
55220;SDS011;41089;51.448;6.604;2024-03-02T20:38:39;2.47;;;2.17;;
55220;SDS011;41089;51.448;6.604;2024-03-02T20:44:39;5.88;;;2.80;;
55220;SDS011;41089;51.448;6.604;2024-03-02T20:50:40;2.20;;;2.00;;
55220;SDS011;41089;51.448;6.604;2024-03-02T20:56:40;3.30;;;2.73;;
55220;SDS011;41089;51.448;6.604;2024-03-02T21:02:41;3.38;;;3.08;;
55220;SDS011;41089;51.448;6.604;2024-03-02T21:08:42;4.65;;;3.40;;
55220;SDS011;41089;51.448;6.604;2024-03-02T21:14:42;2.88;;;2.55;;
55220;SDS011;41089;51.448;6.604;2024-03-02T21:20:42;2.50;;;2.30;;
55220;SDS011;41089;51.448;6.604;2024-03-02T21:26:43;2.97;;;2.67;;
55220;SDS011;41089;51.448;6.604;2024-03-02T21:32:43;5.70;;;2.93;;
55220;SDS011;41089;51.448;6.604;2024-03-02T21:38:44;4.82;;;2.30;;
55220;SDS011;41089;51.448;6.604;2024-03-02T21:44:44;3.33;;;2.70;;
55220;SDS011;41089;51.448;6.604;2024-03-02T21:50:46;2.53;;;2.30;;
55220;SDS011;41089;51.448;6.604;2024-03-02T21:56:46;3.65;;;3.20;;
55220;SDS011;41089;51.448;6.604;2024-03-02T22:02:48;3.72;;;3.05;;
55220;SDS011;41089;51.448;6.604;2024-03-02T22:08:48;4.60;;;3.00;;
55220;SDS011;41089;51.448;6.604;2024-03-02T22:14:49;4.85;;;3.63;;
55220;SDS011;41089;51.448;6.604;2024-03-02T22:20:49;8.65;;;4.70;;
55220;SDS011;41089;51.448;6.604;2024-03-02T22:26:49;3.90;;;3.23;;
55220;SDS011;41089;51.448;6.604;2024-03-02T22:32:50;3.65;;;2.85;;
55220;SDS011;41089;51.448;6.604;2024-03-02T22:38:51;4.15;;;3.40;;
55220;SDS011;41089;51.448;6.604;2024-03-02T22:44:51;4.00;;;3.30;;
55220;SDS011;41089;51.448;6.604;2024-03-02T22:50:51;5.45;;;4.03;;
55220;SDS011;41089;51.448;6.604;2024-03-02T23:02:52;5.78;;;4.13;;
55220;SDS011;41089;51.448;6.604;2024-03-02T23:08:53;6.53;;;4.07;;
55220;SDS011;41089;51.448;6.604;2024-03-02T23:14:53;6.63;;;3.67;;
55220;SDS011;41089;51.448;6.604;2024-03-02T23:20:54;4.70;;;3.97;;
55220;SDS011;41089;51.448;6.604;2024-03-02T23:26:54;5.32;;;3.80;;
55220;SDS011;41089;51.448;6.604;2024-03-02T23:32:55;4.55;;;4.07;;
55220;SDS011;41089;51.448;6.604;2024-03-02T23:38:58;5.68;;;4.53;;
55220;SDS011;41089;51.448;6.604;2024-03-02T23:45:04;6.80;;;4.60;;
55220;SDS011;41089;51.448;6.604;2024-03-02T23:51:05;5.40;;;4.43;;
55220;SDS011;41089;51.448;6.604;2024-03-02T23:57:05;9.70;;;6.53;;
